createdAt,value
2018-06-17T00:02:07.581Z,38.23
2018-06-17T00:04:35.451Z,41.37
2018-06-17T00:07:03.348Z,40.00
2018-06-17T00:09:31.194Z,40.53
2018-06-17T00:11:59.103Z,35.60
2018-06-17T00:14:26.988Z,35.03
2018-06-17T00:16:54.697Z,34.23
2018-06-17T00:19:22.499Z,33.70
2018-06-17T00:21:50.401Z,44.60
2018-06-17T00:24:18.276Z,18.47
2018-06-17T00:26:46.108Z,34.70
2018-06-17T00:29:14.680Z,32.50
2018-06-17T00:31:42.635Z,33.20
2018-06-17T00:34:10.625Z,32.30
2018-06-17T00:36:38.564Z,35.40
2018-06-17T00:39:07.574Z,38.10
2018-06-17T00:41:35.484Z,30.40
2018-06-17T00:44:03.331Z,35.30
2018-06-17T00:46:31.143Z,34.43
2018-06-17T00:48:58.932Z,33.53
2018-06-17T00:51:26.790Z,37.00
2018-06-17T00:53:54.561Z,35.40
2018-06-17T00:56:22.416Z,39.47
2018-06-17T00:58:50.332Z,44.83
2018-06-17T01:01:18.192Z,44.67
2018-06-17T01:03:46.034Z,43.13
2018-06-17T01:06:14.282Z,43.23
2018-06-17T01:08:42.469Z,41.63
2018-06-17T01:11:10.408Z,42.90
2018-06-17T01:13:38.083Z,45.27
2018-06-17T01:16:05.896Z,45.40
2018-06-17T01:18:33.699Z,45.00
2018-06-17T01:21:01.518Z,40.03
2018-06-17T01:23:29.510Z,44.60
2018-06-17T01:26:00.763Z,40.20
2018-06-17T01:28:28.793Z,37.20
2018-06-17T01:30:56.824Z,44.80
2018-06-17T01:33:24.740Z,40.70
2018-06-17T01:35:52.711Z,45.10
2018-06-17T01:38:20.732Z,45.70
2018-06-17T01:40:48.687Z,37.57
2018-06-17T01:43:16.514Z,37.73
2018-06-17T01:45:44.364Z,38.77
2018-06-17T01:48:12.171Z,41.17
2018-06-17T01:50:39.970Z,34.20
2018-06-17T01:53:07.965Z,38.10
2018-06-17T01:55:35.757Z,34.30
2018-06-17T01:58:03.589Z,35.83
2018-06-17T02:00:31.430Z,33.50
2018-06-17T02:03:03.551Z,31.93
2018-06-17T02:05:36.761Z,36.97
2018-06-17T02:08:09.917Z,33.60
2018-06-17T02:10:43.124Z,29.73
2018-06-17T02:13:11.128Z,24.77
2018-06-17T02:15:38.919Z,33.23
2018-06-17T02:18:06.743Z,29.53
2018-06-17T02:20:34.556Z,32.40
2018-06-17T02:23:02.228Z,35.13
2018-06-17T02:25:30.009Z,32.77
2018-06-17T02:27:57.891Z,30.10
2018-06-17T02:30:25.653Z,32.07
2018-06-17T02:32:53.535Z,32.70
2018-06-17T02:35:21.165Z,37.90
2018-06-17T02:37:48.897Z,33.30
2018-06-17T02:40:16.962Z,37.10
2018-06-17T02:42:44.794Z,33.67
2018-06-17T02:45:17.620Z,35.20
2018-06-17T02:47:50.663Z,32.63
2018-06-17T02:50:23.655Z,29.30
2018-06-17T02:52:56.678Z,36.70
2018-06-17T02:55:24.309Z,34.27
2018-06-17T02:57:52.139Z,35.03
2018-06-17T03:00:20.093Z,30.90
2018-06-17T03:02:48.146Z,30.77
2018-06-17T03:05:16.047Z,36.00
2018-06-17T03:07:44.049Z,27.17
2018-06-17T03:10:11.848Z,29.60
2018-06-17T03:12:39.637Z,36.60
2018-06-17T03:15:07.533Z,32.93
2018-06-17T03:17:35.300Z,30.83
2018-06-17T03:20:03.177Z,32.37
2018-06-17T03:22:31.225Z,34.30
2018-06-17T03:25:04.373Z,31.90
2018-06-17T03:27:37.608Z,33.13
2018-06-17T03:30:10.716Z,33.07
2018-06-17T03:32:43.626Z,34.87
2018-06-17T03:35:16.949Z,32.67
2018-06-17T03:37:44.927Z,35.63
2018-06-17T03:40:12.747Z,36.87
2018-06-17T03:42:40.800Z,36.67
2018-06-17T03:45:08.804Z,36.80
2018-06-17T03:47:36.757Z,34.43
2018-06-17T03:50:04.930Z,33.70
2018-06-17T03:52:32.587Z,31.43
2018-06-17T03:55:00.396Z,34.47
2018-06-17T03:57:28.366Z,40.27
2018-06-17T03:59:56.208Z,36.63
2018-06-17T04:02:23.860Z,38.57
2018-06-17T04:04:56.716Z,34.80
2018-06-17T04:07:24.423Z,40.40
2018-06-17T04:09:52.220Z,45.07
2018-06-17T04:12:20.093Z,38.87
2018-06-17T04:14:47.902Z,45.13
2018-06-17T04:17:15.908Z,37.53
2018-06-17T04:19:45.289Z,42.80
2018-06-17T04:22:13.512Z,38.47
2018-06-17T04:24:41.136Z,39.67
2018-06-17T04:27:09.252Z,40.40
2018-06-17T04:29:36.984Z,39.17
2018-06-17T04:32:04.332Z,42.23
2018-06-17T04:34:32.111Z,39.30
2018-06-17T04:36:59.832Z,46.73
2018-06-17T04:39:27.589Z,41.03
2018-06-17T04:41:55.643Z,37.53
2018-06-17T04:44:23.419Z,46.73
2018-06-17T04:46:51.237Z,46.13
2018-06-17T04:49:19.203Z,41.47
2018-06-17T04:51:47.068Z,48.83
2018-06-17T04:54:14.817Z,50.27
2018-06-17T04:56:42.672Z,47.77
2018-06-17T04:59:10.524Z,39.07
2018-06-17T05:01:38.444Z,46.40
2018-06-17T05:04:06.397Z,39.77
2018-06-17T05:06:34.254Z,39.63
2018-06-17T05:09:02.113Z,37.03
2018-06-17T05:11:30.031Z,41.30
2018-06-17T05:13:58.050Z,41.93
2018-06-17T05:16:26.205Z,39.33
2018-06-17T05:18:53.998Z,41.67
2018-06-17T05:21:21.951Z,39.37
2018-06-17T05:23:51.679Z,40.20
2018-06-17T05:26:19.739Z,37.97
2018-06-17T05:28:47.589Z,45.10
2018-06-17T05:31:15.252Z,34.67
2018-06-17T05:33:43.122Z,40.90
2018-06-17T05:36:11.045Z,38.47
2018-06-17T05:38:39.020Z,35.60
2018-06-17T05:41:06.307Z,28.90
2018-06-17T05:43:34.248Z,33.03
2018-06-17T05:46:02.156Z,38.53
2018-06-17T05:48:29.984Z,30.03
2018-06-17T05:50:57.988Z,37.70
2018-06-17T05:53:26.036Z,32.37
2018-06-17T05:55:53.923Z,29.03
2018-06-17T05:58:21.852Z,34.20
2018-06-17T06:00:49.731Z,30.43
2018-06-17T06:03:17.511Z,23.60
2018-06-17T06:05:45.381Z,24.67
2018-06-17T06:08:13.085Z,26.60
2018-06-17T06:10:40.710Z,25.80
2018-06-17T06:13:08.500Z,23.33
2018-06-17T06:15:36.469Z,19.97
2018-06-17T06:18:04.312Z,22.50
2018-06-17T06:20:32.107Z,18.60
2018-06-17T06:23:00.112Z,17.93
2018-06-17T06:25:27.932Z,15.43
2018-06-17T06:27:55.736Z,18.93
2018-06-17T06:30:24.231Z,13.40
2018-06-17T06:32:52.282Z,13.73
2018-06-17T06:35:20.307Z,18.10
2018-06-17T06:37:48.114Z,14.20
2018-06-17T06:40:15.925Z,17.23
2018-06-17T06:42:43.728Z,16.50
2018-06-17T06:45:11.543Z,18.23
2018-06-17T06:47:39.539Z,16.07
2018-06-17T06:50:07.527Z,14.50
2018-06-17T06:52:35.469Z,10.77
2018-06-17T06:55:03.408Z,15.93
2018-06-17T06:57:31.365Z,12.60
2018-06-17T06:59:59.387Z,17.53
2018-06-17T07:02:32.591Z,14.17
2018-06-17T07:05:05.771Z,15.13
2018-06-17T07:07:38.994Z,14.30
2018-06-17T07:10:12.122Z,14.47
2018-06-17T07:12:40.011Z,9.30
2018-06-17T07:15:07.803Z,15.20
2018-06-17T07:17:41.014Z,7.90
2018-06-17T07:20:08.838Z,9.07
2018-06-17T07:22:36.613Z,12.73
2018-06-17T07:25:04.532Z,9.37
2018-06-17T07:27:37.776Z,6.47
2018-06-17T07:30:05.640Z,14.23
2018-06-17T07:32:33.455Z,9.53
2018-06-17T07:35:01.311Z,10.03
2018-06-17T07:37:29.161Z,4.80
2018-06-17T07:40:59.523Z,6.87
2018-06-17T07:43:27.301Z,9.10
2018-06-17T07:45:55.096Z,8.13
2018-06-17T07:48:30.225Z,8.20
2018-06-17T07:51:03.357Z,19.03
2018-06-17T07:53:31.352Z,8.77
2018-06-17T07:55:59.149Z,8.10
2018-06-17T07:58:26.992Z,11.03
2018-06-17T08:00:54.925Z,6.40
2018-06-17T08:03:22.785Z,9.73
2018-06-17T08:05:50.585Z,6.57
2018-06-17T08:08:18.417Z,8.63
2018-06-17T08:10:46.144Z,9.83
2018-06-17T08:13:13.915Z,12.13
2018-06-17T08:15:41.721Z,13.80
2018-06-17T08:18:09.431Z,11.57
2018-06-17T08:20:37.232Z,6.03
2018-06-17T08:23:05.772Z,11.03
2018-06-17T08:25:33.768Z,7.80
2018-06-17T08:28:01.725Z,6.27
2018-06-17T08:30:29.661Z,11.90
2018-06-17T08:32:57.687Z,7.50
2018-06-17T08:35:25.687Z,8.70
2018-06-17T08:37:53.642Z,6.90
2018-06-17T08:40:21.937Z,7.07
2018-06-17T08:42:49.893Z,5.50
2018-06-17T08:45:17.905Z,9.27
2018-06-17T08:47:45.771Z,7.50
2018-06-17T08:50:13.847Z,8.70
2018-06-17T08:52:42.056Z,10.67
2018-06-17T08:55:09.784Z,11.70
2018-06-17T08:57:37.441Z,4.27
2018-06-17T09:00:05.197Z,7.70
2018-06-17T09:02:33.152Z,5.20
2018-06-17T09:05:01.021Z,9.47
2018-06-17T09:07:28.816Z,10.00
2018-06-17T09:09:56.668Z,4.87
2018-06-17T09:12:24.527Z,8.60
2018-06-17T09:14:52.396Z,4.90
2018-06-17T09:17:20.209Z,3.93
2018-06-17T09:19:48.176Z,8.40
2018-06-17T09:22:16.156Z,6.33
2018-06-17T09:24:44.127Z,5.60
2018-06-17T09:27:12.012Z,4.93
2018-06-17T09:29:40.071Z,5.00
2018-06-17T09:32:07.952Z,6.40
2018-06-17T09:34:35.593Z,6.00
2018-06-17T09:37:03.388Z,6.83
2018-06-17T09:39:31.350Z,4.30
2018-06-17T09:41:59.364Z,13.80
2018-06-17T09:44:27.303Z,5.20
2018-06-17T09:46:55.315Z,5.37
2018-06-17T09:49:23.456Z,5.50
2018-06-17T09:51:51.209Z,5.83
2018-06-17T09:54:19.076Z,3.57
2018-06-17T09:56:46.891Z,7.50
2018-06-17T09:59:14.748Z,7.40
2018-06-17T10:01:42.531Z,4.67
2018-06-17T10:04:10.488Z,8.77
2018-06-17T10:06:38.331Z,5.20
2018-06-17T10:09:08.197Z,4.53
2018-06-17T10:11:36.277Z,5.63
2018-06-17T10:14:04.254Z,4.40
2018-06-17T10:16:32.221Z,5.37
2018-06-17T10:19:00.092Z,4.40
2018-06-17T10:21:28.029Z,10.13
2018-06-17T10:23:55.911Z,3.67
2018-06-17T10:26:23.544Z,5.20
2018-06-17T10:28:51.365Z,5.03
2018-06-17T10:31:19.313Z,3.77
2018-06-17T10:33:47.165Z,5.37
2018-06-17T10:36:15.008Z,4.20
2018-06-17T10:38:42.959Z,4.83
2018-06-17T10:41:10.588Z,9.70
2018-06-17T10:43:38.389Z,10.20
2018-06-17T10:46:06.360Z,6.50
2018-06-17T10:48:38.948Z,4.67
2018-06-17T10:51:06.698Z,5.33
2018-06-17T10:53:34.385Z,6.63
2018-06-17T10:56:02.179Z,4.80
2018-06-17T10:58:29.971Z,4.97
2018-06-17T11:00:57.809Z,7.80
2018-06-17T11:03:25.751Z,5.10
2018-06-17T11:05:53.633Z,4.67
2018-06-17T11:08:21.381Z,5.63
2018-06-17T11:10:50.142Z,8.37
2018-06-17T11:13:17.912Z,8.30
2018-06-17T11:15:45.926Z,7.33
2018-06-17T11:18:13.916Z,12.80
2018-06-17T11:20:41.725Z,5.20
2018-06-17T11:23:10.984Z,6.80
2018-06-17T11:25:38.597Z,9.27
2018-06-17T11:28:06.404Z,5.37
2018-06-17T11:30:34.271Z,5.63
2018-06-17T11:33:02.069Z,8.53
2018-06-17T11:35:29.884Z,6.73
2018-06-17T11:37:58.339Z,5.93
2018-06-17T11:40:26.584Z,3.43
2018-06-17T11:42:54.455Z,5.30
2018-06-17T11:45:23.360Z,8.50
2018-06-17T11:47:51.371Z,10.00
2018-06-17T11:50:18.919Z,5.80
2018-06-17T11:52:46.812Z,5.20
2018-06-17T11:55:14.804Z,7.80
2018-06-17T11:57:42.748Z,8.20
2018-06-17T12:00:11.046Z,9.57
2018-06-17T12:02:38.611Z,7.80
2018-06-17T12:05:06.189Z,10.33
2018-06-17T12:07:33.724Z,7.30
2018-06-17T12:10:01.299Z,7.47
2018-06-17T12:12:28.816Z,8.60
2018-06-17T12:14:56.423Z,5.80
2018-06-17T12:17:23.968Z,10.37
2018-06-17T12:19:51.580Z,6.40
2018-06-17T12:22:19.181Z,12.20
2018-06-17T12:24:46.697Z,9.73
2018-06-17T12:27:14.301Z,13.60
2018-06-17T12:29:41.878Z,5.77
2018-06-17T12:32:09.757Z,8.27
2018-06-17T12:34:37.372Z,8.67
2018-06-17T12:37:05.104Z,7.80
2018-06-17T12:39:32.728Z,7.07
2018-06-17T12:42:00.571Z,11.20
2018-06-17T12:44:28.344Z,10.50
2018-06-17T12:46:56.196Z,9.80
2018-06-17T12:49:24.151Z,12.90
2018-06-17T12:51:52.252Z,9.10
2018-06-17T12:54:19.966Z,11.07
2018-06-17T12:56:47.744Z,15.70
2018-06-17T12:59:15.768Z,20.53
2018-06-17T13:01:43.716Z,17.20
2018-06-17T13:04:12.336Z,15.77
2018-06-17T13:06:40.259Z,15.93
2018-06-17T13:09:09.256Z,18.80
2018-06-17T13:11:37.144Z,15.00
2018-06-17T13:14:05.149Z,13.03
2018-06-17T13:16:32.960Z,14.00
2018-06-17T13:19:00.795Z,29.13
2018-06-17T13:21:28.578Z,15.80
2018-06-17T13:23:56.431Z,11.90
2018-06-17T13:26:24.385Z,15.80
2018-06-17T13:28:52.353Z,11.77
2018-06-17T13:31:20.224Z,18.03
2018-06-17T13:33:48.000Z,15.10
2018-06-17T13:36:17.424Z,10.13
2018-06-17T13:38:45.546Z,10.47
2018-06-17T13:41:13.309Z,9.67
2018-06-17T13:43:41.097Z,11.67
2018-06-17T13:46:09.121Z,11.43
2018-06-17T13:48:36.950Z,10.40
2018-06-17T13:51:04.779Z,18.07
2018-06-17T13:53:32.587Z,14.77
2018-06-17T13:56:00.357Z,10.23
2018-06-17T13:58:28.248Z,16.50
2018-06-17T14:00:56.021Z,10.87
2018-06-17T14:03:23.896Z,11.20
2018-06-17T14:05:51.644Z,7.13
2018-06-17T14:08:19.656Z,7.20
2018-06-17T14:10:47.484Z,6.80
2018-06-17T14:13:15.301Z,11.53
2018-06-17T14:15:43.220Z,10.23
2018-06-17T14:18:11.116Z,5.50
2018-06-17T14:20:38.629Z,12.63
2018-06-17T14:23:06.465Z,4.57
2018-06-17T14:25:34.198Z,6.30
2018-06-17T14:28:02.210Z,12.27
2018-06-17T14:30:30.035Z,6.53
2018-06-17T14:32:57.853Z,4.40
2018-06-17T14:35:25.852Z,4.00
2018-06-17T14:37:53.667Z,3.20
2018-06-17T14:40:21.809Z,4.30
2018-06-17T14:42:54.904Z,5.67
2018-06-17T14:46:27.150Z,3.17
2018-06-17T14:49:00.903Z,3.67
2018-06-17T14:51:33.997Z,5.90
2018-06-17T14:54:01.786Z,3.60
2018-06-17T14:56:29.638Z,2.63
2018-06-17T14:58:57.394Z,4.30
2018-06-17T15:01:25.263Z,1.83
2018-06-17T15:03:53.109Z,3.30
2018-06-17T15:06:20.912Z,1.80
2018-06-17T15:08:48.576Z,2.50
2018-06-17T15:11:16.377Z,3.93
2018-06-17T15:13:44.422Z,3.80
2018-06-17T15:16:12.321Z,3.73
2018-06-17T15:18:40.135Z,4.07
2018-06-17T15:21:07.825Z,3.43
2018-06-17T15:23:35.616Z,8.53
2018-06-17T15:26:03.388Z,3.63
2018-06-17T15:28:31.351Z,4.03
2018-06-17T15:31:04.422Z,5.33
2018-06-17T15:33:37.287Z,5.00
2018-06-17T15:36:10.188Z,2.77
2018-06-17T15:38:42.997Z,6.13
2018-06-17T15:41:15.950Z,2.77
2018-06-17T15:43:43.780Z,2.60
2018-06-17T15:46:11.713Z,7.47
2018-06-17T15:48:39.751Z,1.77
2018-06-17T15:51:07.671Z,5.50
2018-06-17T15:53:35.556Z,3.57
2018-06-17T15:56:03.351Z,5.43
2018-06-17T15:58:31.304Z,4.17
2018-06-17T16:00:59.248Z,3.77
2018-06-17T16:03:27.285Z,5.27
2018-06-17T16:05:55.169Z,1.27
2018-06-17T16:08:23.205Z,3.07
2018-06-17T16:10:51.064Z,5.50
2018-06-17T16:13:24.043Z,9.27
2018-06-17T16:15:57.080Z,2.80
2018-06-17T16:18:30.156Z,2.60
2018-06-17T16:20:59.139Z,6.67
2018-06-17T16:23:27.187Z,7.03
2018-06-17T16:25:54.729Z,6.00
2018-06-17T16:28:22.283Z,4.10
2018-06-17T16:30:50.175Z,4.63
2018-06-17T16:33:18.243Z,5.73
2018-06-17T16:35:46.860Z,4.50
2018-06-17T16:38:15.471Z,4.97
2018-06-17T16:40:43.363Z,2.03
2018-06-17T16:43:12.009Z,3.93
2018-06-17T16:45:40.040Z,3.23
2018-06-17T16:48:07.960Z,3.00
2018-06-17T16:50:35.840Z,7.30
2018-06-17T16:53:08.751Z,2.63
2018-06-17T16:55:41.672Z,7.67
2018-06-17T16:58:14.763Z,3.97
2018-06-17T17:00:42.684Z,5.60
2018-06-17T17:03:10.461Z,2.10
2018-06-17T17:05:38.217Z,4.00
2018-06-17T17:08:06.088Z,2.90
2018-06-17T17:10:34.023Z,7.83
2018-06-17T17:13:01.801Z,8.70
2018-06-17T17:15:29.817Z,11.23
2018-06-17T17:17:57.824Z,4.27
2018-06-17T17:20:25.767Z,5.80
2018-06-17T17:22:53.780Z,6.80
2018-06-17T17:25:21.582Z,3.23
2018-06-17T17:27:49.420Z,3.87
2018-06-17T17:30:17.352Z,5.50
2018-06-17T17:32:50.494Z,4.00
2018-06-17T17:35:23.396Z,5.27
2018-06-17T17:37:56.201Z,2.50
2018-06-17T17:40:29.155Z,3.43
2018-06-17T17:42:56.718Z,4.37
2018-06-17T17:45:24.776Z,3.97
2018-06-17T17:47:52.652Z,3.90
2018-06-17T17:50:20.623Z,3.47
2018-06-17T17:52:48.403Z,4.67
2018-06-17T17:55:16.255Z,2.77
2018-06-17T17:57:44.231Z,2.47
2018-06-17T18:00:12.084Z,5.50
2018-06-17T18:02:39.857Z,6.23
2018-06-17T18:05:07.832Z,4.33
2018-06-17T18:07:35.633Z,2.80
2018-06-17T18:10:03.372Z,6.90
2018-06-17T18:12:31.501Z,3.07
2018-06-17T18:14:59.278Z,4.67
2018-06-17T18:17:27.111Z,2.70
2018-06-17T18:19:54.949Z,8.60
2018-06-17T18:22:22.696Z,6.50
2018-06-17T18:24:55.592Z,6.47
2018-06-17T18:27:28.447Z,3.90
2018-06-17T18:30:01.449Z,4.67
2018-06-17T18:32:34.691Z,7.87
2018-06-17T18:35:07.955Z,4.47
2018-06-17T18:37:35.864Z,3.97
2018-06-17T18:40:03.796Z,6.33
2018-06-17T18:42:32.028Z,4.97
2018-06-17T18:44:59.752Z,7.87
2018-06-17T18:47:27.309Z,8.03
2018-06-17T18:49:55.061Z,5.20
2018-06-17T18:52:22.999Z,7.30
2018-06-17T18:54:51.063Z,3.37
2018-06-17T18:57:18.948Z,7.40
2018-06-17T18:59:47.017Z,6.03
2018-06-17T19:02:14.998Z,5.80
2018-06-17T19:04:43.028Z,4.33
2018-06-17T19:07:10.958Z,2.87
2018-06-17T19:11:45.660Z,3.67
2018-06-17T19:14:18.910Z,2.70
2018-06-17T19:16:52.040Z,4.57
2018-06-17T19:19:19.964Z,5.90
2018-06-17T19:21:48.089Z,4.07
2018-06-17T19:24:15.887Z,4.93
2018-06-17T19:26:43.578Z,3.13
2018-06-17T19:29:12.585Z,4.25
2018-06-17T19:31:41.002Z,2.67
2018-06-17T19:34:08.841Z,3.13
2018-06-17T19:36:36.804Z,3.07
2018-06-17T19:39:06.862Z,7.60
2018-06-17T19:41:34.752Z,7.63
2018-06-17T19:44:02.581Z,6.97
2018-06-17T19:46:30.518Z,6.33
2018-06-17T19:48:58.389Z,7.63
2018-06-17T19:51:31.622Z,8.53
2018-06-17T19:54:04.821Z,3.80
2018-06-17T19:56:38.072Z,3.33
2018-06-17T19:59:11.272Z,4.03
2018-06-17T20:01:39.307Z,4.60
2018-06-17T20:04:07.105Z,9.60
2018-06-17T20:06:35.197Z,9.53
2018-06-17T20:09:03.637Z,6.33
2018-06-17T20:11:31.508Z,4.43
2018-06-17T20:14:00.069Z,6.03
2018-06-17T20:16:28.063Z,6.10
2018-06-17T20:18:55.848Z,10.57
2018-06-17T20:21:23.541Z,8.53
2018-06-17T20:23:51.304Z,4.70
2018-06-17T20:26:19.310Z,6.53
2018-06-17T20:28:47.292Z,5.50
2018-06-17T20:31:15.288Z,8.07
2018-06-17T20:33:48.308Z,4.47
2018-06-17T20:36:21.272Z,7.07
2018-06-17T20:38:54.792Z,3.60
2018-06-17T20:41:27.907Z,5.47
2018-06-17T20:43:55.859Z,8.37
2018-06-17T20:46:23.707Z,4.40
2018-06-17T20:48:51.971Z,5.93
2018-06-17T20:51:20.248Z,5.83
2018-06-17T20:53:49.166Z,7.87
2018-06-17T20:56:17.050Z,3.33
2018-06-17T20:58:44.998Z,6.53
2018-06-17T21:01:13.039Z,5.90
2018-06-17T21:03:41.028Z,8.73
2018-06-17T21:06:08.977Z,7.23
2018-06-17T21:08:36.996Z,10.70
2018-06-17T21:11:04.828Z,4.60
2018-06-17T21:13:32.624Z,5.27
2018-06-17T21:16:00.432Z,5.20
2018-06-17T21:18:33.530Z,5.47
2018-06-17T21:21:06.632Z,4.50
2018-06-17T21:23:39.752Z,10.53
2018-06-17T21:26:12.580Z,13.57
2018-06-17T21:28:40.430Z,5.73
2018-06-17T21:31:08.387Z,4.03
2018-06-17T21:33:36.385Z,10.43
2018-06-17T21:36:04.245Z,5.70
2018-06-17T21:38:31.869Z,6.30
2018-06-17T21:40:59.649Z,9.87
2018-06-17T21:43:27.520Z,5.80
2018-06-17T21:45:55.307Z,8.50
2018-06-17T21:48:23.294Z,7.07
2018-06-17T21:50:51.161Z,11.23
2018-06-17T21:53:18.903Z,5.17
2018-06-17T21:55:46.791Z,6.80
2018-06-17T21:58:18.671Z,7.00
2018-06-17T22:00:46.433Z,8.00
2018-06-17T22:03:14.087Z,11.90
2018-06-17T22:05:41.764Z,4.67
2018-06-17T22:08:14.517Z,6.30
2018-06-17T22:10:47.527Z,6.30
2018-06-17T22:13:15.520Z,7.60
2018-06-17T22:15:48.616Z,8.37
2018-06-17T22:18:16.233Z,6.03
2018-06-17T22:20:43.978Z,8.10
2018-06-17T22:23:11.875Z,11.13
2018-06-17T22:25:39.572Z,13.20
2018-06-17T22:28:07.355Z,5.03
2018-06-17T22:30:35.211Z,5.77
2018-06-17T22:33:02.875Z,8.67
2018-06-17T22:35:30.657Z,15.87
2018-06-17T22:37:59.273Z,8.50
2018-06-17T22:40:27.200Z,12.97
2018-06-17T22:42:54.853Z,6.47
2018-06-17T22:45:22.628Z,4.00
2018-06-17T22:47:55.835Z,7.83
2018-06-17T22:50:23.811Z,7.83
2018-06-17T22:52:57.038Z,9.23
2018-06-17T22:55:24.986Z,7.37
2018-06-17T22:57:58.231Z,4.07
2018-06-17T23:00:31.331Z,6.60
2018-06-17T23:03:04.463Z,13.47
2018-06-17T23:05:37.327Z,7.47
2018-06-17T23:08:10.525Z,8.80
2018-06-17T23:10:38.368Z,5.90
2018-06-17T23:13:06.360Z,8.07
2018-06-17T23:15:34.169Z,9.37
2018-06-17T23:18:01.917Z,6.70
2018-06-17T23:20:29.788Z,14.50
2018-06-17T23:22:57.595Z,9.33
2018-06-17T23:25:25.412Z,10.87
2018-06-17T23:27:53.220Z,9.70
2018-06-17T23:30:21.205Z,9.87
2018-06-17T23:32:49.023Z,12.80
2018-06-17T23:35:16.611Z,9.70
2018-06-17T23:37:44.531Z,8.00
2018-06-17T23:40:12.503Z,8.20
2018-06-17T23:42:40.359Z,10.80
2018-06-17T23:45:07.999Z,8.83
2018-06-17T23:47:41.008Z,11.83
2018-06-17T23:50:14.039Z,17.77
2018-06-17T23:52:46.956Z,8.13
2018-06-17T23:55:19.769Z,15.10
2018-06-17T23:57:48.265Z,10.40
